Terminal Aerodrome Forecast
Issued by NWS Boston, MA

Current Version | Previous Version | Text Only | Print | Product List | Glossary On
Versions: 1 2 3 4 5 6 7 8 9 10 11 12 13 14 15 16 17 18 19 20 21 22 23 24 25 26 27 28 29 30 31
000 FTUS41 KBOX 211325 AAA TAFORH TAF AMD KORH 211325Z 2113/2212 19010KT 1SM -RA BR OVC002 FM211445 19007KT 4SM BR BKN007 FM211630 18008KT 4SM BR BKN015 FM211800 17007KT P6SM BKN035 FM220000 20004KT P6SM BKN015 FM220400 24005KT 5SM BR BKN008=

USA.gov is the U.S. government's official web portal to all federal, state and local government web resources and services.